createdAt,value
2017-01-19T00:00:18.882Z,0
2017-01-19T00:01:19.298Z,0
2017-01-19T00:02:19.286Z,0
2017-01-19T00:03:19.701Z,0
2017-01-19T00:04:19.697Z,0
2017-01-19T00:05:19.281Z,0
2017-01-19T00:06:19.273Z,0
2017-01-19T00:07:18.845Z,0
2017-01-19T00:08:19.264Z,0
2017-01-19T00:09:18.845Z,0
2017-01-19T00:10:19.664Z,0
2017-01-19T00:11:19.660Z,0
2017-01-19T00:12:18.824Z,0
2017-01-19T00:13:18.816Z,0
2017-01-19T00:14:19.236Z,0
2017-01-19T00:15:19.636Z,0
2017-01-19T00:16:19.627Z,0
2017-01-19T00:17:18.804Z,0
2017-01-19T00:18:19.215Z,0
2017-01-19T00:19:19.615Z,0
2017-01-19T00:20:19.195Z,0
2017-01-19T00:21:19.187Z,0
2017-01-19T00:22:18.376Z,0
2017-01-19T00:23:19.595Z,0
2017-01-19T00:24:19.179Z,0
2017-01-19T00:25:19.183Z,0
2017-01-19T00:26:19.167Z,0
2017-01-19T00:27:19.167Z,0
2017-01-19T00:28:19.568Z,0
2017-01-19T00:29:18.747Z,0
2017-01-19T00:30:19.147Z,0
2017-01-19T00:31:19.147Z,0
2017-01-19T00:32:19.131Z,0
2017-01-19T00:33:19.547Z,0
2017-01-19T00:34:18.719Z,0
2017-01-19T00:35:19.786Z,0
2017-01-19T00:36:19.115Z,0
2017-01-19T00:37:19.115Z,0
2017-01-19T00:38:19.520Z,0
2017-01-19T00:39:19.110Z,0
2017-01-19T00:40:19.654Z,0
2017-01-19T00:41:19.515Z,0
2017-01-19T00:42:18.686Z,0
2017-01-19T00:43:19.082Z,0
2017-01-19T00:44:19.082Z,0
2017-01-19T00:45:19.062Z,0
2017-01-19T00:46:19.070Z,0
2017-01-19T00:47:18.654Z,0
2017-01-19T00:48:19.066Z,0
2017-01-19T00:49:18.647Z,0
2017-01-19T00:50:18.639Z,0
2017-01-19T00:51:19.050Z,0
2017-01-19T00:52:19.246Z,0
2017-01-19T00:53:19.034Z,0
2017-01-19T00:54:18.622Z,0
2017-01-19T00:55:18.609Z,0
2017-01-19T00:56:19.023Z,0
2017-01-19T00:57:18.617Z,0
2017-01-19T00:58:19.014Z,0
2017-01-19T00:59:19.006Z,0
2017-01-19T01:00:18.590Z,0
2017-01-19T01:01:19.005Z,0
2017-01-19T01:02:19.018Z,0
2017-01-19T01:03:18.986Z,0
2017-01-19T01:04:19.401Z,0
2017-01-19T01:05:18.981Z,0
2017-01-19T01:06:19.381Z,0
2017-01-19T01:07:18.969Z,0
2017-01-19T01:08:18.145Z,0
2017-01-19T01:09:18.961Z,0
2017-01-19T01:10:18.541Z,0
2017-01-19T01:11:18.949Z,0
2017-01-19T01:12:18.941Z,0
2017-01-19T01:13:18.521Z,0
2017-01-19T01:14:18.937Z,0
2017-01-19T01:15:18.936Z,0
2017-01-19T01:16:19.337Z,0
2017-01-19T01:17:18.912Z,0
2017-01-19T01:18:18.909Z,0
2017-01-19T01:19:19.316Z,0
2017-01-19T01:20:18.497Z,0
2017-01-19T01:21:19.316Z,0
2017-01-19T01:22:18.889Z,0
2017-01-19T01:23:18.888Z,0
2017-01-19T01:24:18.476Z,0
2017-01-19T01:25:18.876Z,0
2017-01-19T01:26:18.868Z,0
2017-01-19T01:27:18.876Z,0
2017-01-19T01:28:19.273Z,0
2017-01-19T01:29:18.876Z,0
2017-01-19T01:30:18.860Z,0
2017-01-19T01:31:18.843Z,0
2017-01-19T01:32:18.852Z,0
2017-01-19T01:33:18.845Z,0
2017-01-19T01:34:19.256Z,0
2017-01-19T01:35:18.835Z,0
2017-01-19T01:36:18.832Z,0
2017-01-19T01:37:19.249Z,0
2017-01-19T01:38:18.408Z,0
2017-01-19T01:39:19.221Z,0
2017-01-19T01:40:18.804Z,0
2017-01-19T01:41:18.792Z,0
2017-01-19T01:42:18.808Z,0
2017-01-19T01:43:19.202Z,0
2017-01-19T01:44:18.797Z,0
2017-01-19T01:45:18.369Z,0
2017-01-19T01:46:19.193Z,0
2017-01-19T01:47:19.190Z,0
2017-01-19T01:48:18.766Z,0
2017-01-19T01:49:18.770Z,0
2017-01-19T01:50:18.763Z,0
2017-01-19T01:51:18.763Z,0
2017-01-19T01:52:18.747Z,0
2017-01-19T01:53:18.339Z,0
2017-01-19T01:54:18.751Z,0
2017-01-19T01:55:19.148Z,0
2017-01-19T01:56:18.736Z,0
2017-01-19T01:57:19.145Z,0
2017-01-19T01:58:19.132Z,0
2017-01-19T01:59:19.125Z,0
2017-01-19T02:00:18.717Z,0
2017-01-19T02:01:18.710Z,0
2017-01-19T02:02:18.298Z,0
2017-01-19T02:03:19.111Z,0
2017-01-19T02:04:18.292Z,0
2017-01-19T02:05:19.103Z,0
2017-01-19T02:06:18.279Z,0
2017-01-19T02:07:18.267Z,0
2017-01-19T02:08:19.096Z,0
2017-01-19T02:09:18.260Z,0
2017-01-19T02:10:18.668Z,0
2017-01-19T02:11:18.252Z,0
2017-01-19T02:12:18.244Z,0
2017-01-19T02:13:18.649Z,0
2017-01-19T02:14:19.061Z,0
2017-01-19T02:15:17.825Z,0
2017-01-19T02:16:19.053Z,0
2017-01-19T02:17:18.630Z,0
2017-01-19T02:18:18.634Z,0
2017-01-19T02:19:19.035Z,0
2017-01-19T02:20:18.623Z,0
2017-01-19T02:21:19.183Z,0
2017-01-19T02:22:18.616Z,0
2017-01-19T02:23:18.196Z,0
2017-01-19T02:24:19.016Z,0
2017-01-19T02:25:19.013Z,0
2017-01-19T02:26:18.621Z,0
2017-01-19T02:27:18.185Z,0
2017-01-19T02:28:19.002Z,0
2017-01-19T02:29:18.986Z,0
2017-01-19T02:30:18.175Z,0
2017-01-19T02:31:18.569Z,0
2017-01-19T02:32:18.559Z,0
2017-01-19T02:33:18.151Z,0
2017-01-19T02:34:18.960Z,0
2017-01-19T02:35:18.540Z,0
2017-01-19T02:36:18.137Z,0
2017-01-19T02:37:18.542Z,0
2017-01-19T02:38:18.541Z,0
2017-01-19T02:39:18.129Z,0
2017-01-19T02:40:18.118Z,0
2017-01-19T02:41:18.526Z,0
2017-01-19T02:42:18.106Z,0
2017-01-19T02:43:18.527Z,0
2017-01-19T02:44:18.511Z,0
2017-01-19T02:45:18.507Z,0
2017-01-19T02:46:18.524Z,0
2017-01-19T02:47:18.088Z,0
2017-01-19T02:48:17.673Z,0
2017-01-19T02:49:18.489Z,0
2017-01-19T02:50:18.900Z,0
2017-01-19T02:51:18.481Z,0
2017-01-19T02:52:18.057Z,0
2017-01-19T02:53:18.874Z,0
2017-01-19T02:54:18.878Z,0
2017-01-19T02:55:18.462Z,0
2017-01-19T02:56:18.050Z,0
2017-01-19T02:57:18.858Z,0
2017-01-19T02:58:18.442Z,0
2017-01-19T02:59:18.027Z,0
2017-01-19T03:00:18.431Z,0
2017-01-19T03:01:18.020Z,0
2017-01-19T03:02:18.832Z,0
2017-01-19T03:03:18.012Z,0
2017-01-19T03:04:18.832Z,0
2017-01-19T03:05:18.409Z,0
2017-01-19T03:06:17.997Z,0
2017-01-19T03:07:19.013Z,0
2017-01-19T03:08:17.989Z,0
2017-01-19T03:09:18.389Z,0
2017-01-19T03:10:18.385Z,0
2017-01-19T03:11:18.374Z,0
2017-01-19T03:12:18.374Z,0
2017-01-19T03:13:17.958Z,0
2017-01-19T03:14:17.958Z,0
2017-01-19T03:15:17.947Z,0
2017-01-19T03:16:18.771Z,0
2017-01-19T03:17:17.947Z,0
2017-01-19T03:18:18.347Z,0
2017-01-19T03:19:17.928Z,0
2017-01-19T03:20:18.751Z,0
2017-01-19T03:21:17.920Z,0
2017-01-19T03:22:18.740Z,0
2017-01-19T03:23:18.322Z,0
2017-01-19T03:24:18.733Z,0
2017-01-19T03:25:18.729Z,0
2017-01-19T03:26:18.705Z,0
2017-01-19T03:27:17.898Z,0
2017-01-19T03:28:18.713Z,0
2017-01-19T03:29:18.713Z,0
2017-01-19T03:30:18.709Z,0
2017-01-19T03:31:17.881Z,0
2017-01-19T03:32:18.282Z,0
2017-01-19T03:33:18.690Z,0
2017-01-19T03:34:18.278Z,0
2017-01-19T03:35:18.270Z,0
2017-01-19T03:36:18.678Z,0
2017-01-19T03:37:18.262Z,0
2017-01-19T03:38:18.662Z,0
2017-01-19T03:39:17.832Z,0
2017-01-19T03:40:17.818Z,0
2017-01-19T03:41:17.834Z,0
2017-01-19T03:42:18.232Z,0
2017-01-19T03:43:18.231Z,0
2017-01-19T03:44:18.215Z,0
2017-01-19T03:45:18.207Z,0
2017-01-19T03:46:18.211Z,0
2017-01-19T03:47:18.207Z,0
2017-01-19T03:48:18.219Z,0
2017-01-19T03:49:18.199Z,0
2017-01-19T03:50:17.780Z,0
2017-01-19T03:51:18.852Z,0
2017-01-19T03:52:17.768Z,0
2017-01-19T03:53:17.767Z,0
2017-01-19T03:54:17.760Z,0
2017-01-19T03:55:17.752Z,0
2017-01-19T03:56:18.172Z,0
2017-01-19T03:57:18.145Z,0
2017-01-19T03:58:18.570Z,0
2017-01-19T03:59:18.564Z,0
2017-01-19T04:00:17.729Z,0
2017-01-19T04:01:18.141Z,0
2017-01-19T04:02:18.129Z,0
2017-01-19T04:03:18.133Z,0
2017-01-19T04:04:18.113Z,0
2017-01-19T04:05:18.125Z,0
2017-01-19T04:06:17.705Z,0
2017-01-19T04:07:18.117Z,12
2017-01-19T04:08:18.105Z,12
2017-01-19T04:09:18.097Z,0
2017-01-19T04:10:18.086Z,0
2017-01-19T04:11:18.102Z,0
2017-01-19T04:12:17.677Z,0
2017-01-19T04:13:18.082Z,0
2017-01-19T04:14:18.078Z,0
2017-01-19T04:15:18.077Z,0
2017-01-19T04:16:18.466Z,0
2017-01-19T04:17:17.651Z,0
2017-01-19T04:18:18.471Z,0
2017-01-19T04:19:17.642Z,0
2017-01-19T04:20:18.459Z,0
2017-01-19T04:21:18.042Z,0
2017-01-19T04:22:18.043Z,0
2017-01-19T04:23:18.019Z,0
2017-01-19T04:24:18.019Z,0
2017-01-19T04:25:17.615Z,0
2017-01-19T04:26:18.015Z,0
2017-01-19T04:27:18.423Z,0
2017-01-19T04:28:18.004Z,0
2017-01-19T04:29:18.417Z,0
2017-01-19T04:30:17.592Z,0
2017-01-19T04:31:18.144Z,0
2017-01-19T04:32:17.992Z,0
2017-01-19T04:33:17.572Z,0
2017-01-19T04:34:17.976Z,0
2017-01-19T04:35:18.377Z,0
2017-01-19T04:36:17.968Z,0
2017-01-19T04:37:17.549Z,0
2017-01-19T04:38:17.957Z,0
2017-01-19T04:39:17.947Z,0
2017-01-19T04:40:17.949Z,0
2017-01-19T04:41:17.946Z,12
2017-01-19T04:42:17.938Z,12
2017-01-19T04:43:17.938Z,0
2017-01-19T04:44:17.927Z,0
2017-01-19T04:45:17.510Z,0
2017-01-19T04:46:17.914Z,0
2017-01-19T04:47:17.914Z,0
2017-01-19T04:48:17.907Z,0
2017-01-19T04:49:17.492Z,0
2017-01-19T04:50:17.901Z,0
2017-01-19T04:51:18.303Z,0
2017-01-19T04:52:17.067Z,0
2017-01-19T04:53:18.295Z,0
2017-01-19T04:54:17.051Z,0
2017-01-19T04:55:17.871Z,0
2017-01-19T04:56:18.283Z,0
2017-01-19T04:57:18.270Z,0
2017-01-19T04:58:17.866Z,0
2017-01-19T04:59:18.258Z,0
2017-01-19T05:00:17.473Z,12
2017-01-19T05:01:17.837Z,12
2017-01-19T05:02:17.841Z,12
2017-01-19T05:03:18.236Z,12
2017-01-19T05:04:17.828Z,0
2017-01-19T05:05:17.820Z,0
2017-01-19T05:06:17.808Z,0
2017-01-19T05:07:17.804Z,0
2017-01-19T05:08:17.403Z,0
2017-01-19T05:09:18.219Z,0
2017-01-19T05:10:17.795Z,0
2017-01-19T05:11:17.786Z,0
2017-01-19T05:12:18.198Z,0
2017-01-19T05:13:18.198Z,0
2017-01-19T05:14:18.190Z,0
2017-01-19T05:15:17.773Z,0
2017-01-19T05:16:17.760Z,0
2017-01-19T05:17:18.177Z,0
2017-01-19T05:18:18.166Z,12
2017-01-19T05:19:17.336Z,12
2017-01-19T05:20:17.732Z,0
2017-01-19T05:21:18.300Z,0
2017-01-19T05:22:17.719Z,0
2017-01-19T05:23:17.723Z,0
2017-01-19T05:24:18.147Z,12
2017-01-19T05:25:17.707Z,12
2017-01-19T05:26:18.115Z,0
2017-01-19T05:27:17.707Z,0
2017-01-19T05:28:17.702Z,0
2017-01-19T05:29:17.690Z,0
2017-01-19T05:30:17.682Z,0
2017-01-19T05:31:17.686Z,0
2017-01-19T05:32:17.666Z,0
2017-01-19T05:33:18.086Z,0
2017-01-19T05:34:18.079Z,0
2017-01-19T05:35:18.078Z,0
2017-01-19T05:36:17.250Z,0
2017-01-19T05:37:18.070Z,0
2017-01-19T05:38:17.258Z,0
2017-01-19T05:39:17.642Z,0
2017-01-19T05:40:18.050Z,0
2017-01-19T05:41:17.221Z,0
2017-01-19T05:42:17.633Z,12
2017-01-19T05:43:18.026Z,12
2017-01-19T05:44:18.033Z,0
2017-01-19T05:45:18.030Z,0
2017-01-19T05:46:17.610Z,0
2017-01-19T05:47:17.217Z,0
2017-01-19T05:48:17.593Z,0
2017-01-19T05:49:17.589Z,0
2017-01-19T05:50:18.005Z,12
2017-01-19T05:51:17.589Z,12
2017-01-19T05:52:17.993Z,0
2017-01-19T05:53:17.565Z,0
2017-01-19T05:54:17.569Z,0
2017-01-19T05:55:17.569Z,0
2017-01-19T05:56:17.557Z,0
2017-01-19T05:57:17.549Z,0
2017-01-19T05:58:17.137Z,0
2017-01-19T05:59:17.553Z,0
2017-01-19T06:00:17.945Z,0
2017-01-19T06:01:16.709Z,0
2017-01-19T06:02:17.945Z,0
2017-01-19T06:03:17.937Z,0
2017-01-19T06:04:17.932Z,0
2017-01-19T06:05:17.105Z,0
2017-01-19T06:06:17.921Z,0
2017-01-19T06:07:17.505Z,0
2017-01-19T06:08:16.681Z,0
2017-01-19T06:09:17.905Z,0
2017-01-19T06:10:17.489Z,0
2017-01-19T06:11:17.481Z,0
2017-01-19T06:12:17.481Z,0
2017-01-19T06:13:17.501Z,0
2017-01-19T06:14:17.873Z,0
2017-01-19T06:15:17.057Z,0
2017-01-19T06:16:17.465Z,0
2017-01-19T06:17:17.454Z,0
2017-01-19T06:18:17.445Z,0
2017-01-19T06:19:17.450Z,0
2017-01-19T06:20:17.854Z,0
2017-01-19T06:21:17.846Z,0
2017-01-19T06:22:17.010Z,0
2017-01-19T06:23:17.425Z,0
2017-01-19T06:24:17.414Z,0
2017-01-19T06:25:17.409Z,0
2017-01-19T06:26:16.598Z,0
2017-01-19T06:27:17.962Z,0
2017-01-19T06:28:17.814Z,0
2017-01-19T06:29:17.394Z,0
2017-01-19T06:30:17.394Z,0
2017-01-19T06:31:17.382Z,0
2017-01-19T06:32:17.382Z,0
2017-01-19T06:33:17.370Z,0
2017-01-19T06:34:17.786Z,0
2017-01-19T06:35:17.783Z,0
2017-01-19T06:36:17.790Z,0
2017-01-19T06:37:16.946Z,4
2017-01-19T06:38:17.762Z,4
2017-01-19T06:39:17.370Z,0
2017-01-19T06:40:17.338Z,4
2017-01-19T06:41:17.338Z,4
2017-01-19T06:42:16.911Z,4
2017-01-19T06:43:17.738Z,8
2017-01-19T06:44:17.330Z,4
2017-01-19T06:45:16.910Z,8
2017-01-19T06:46:17.734Z,8
2017-01-19T06:47:17.294Z,8
2017-01-19T06:48:17.714Z,12
2017-01-19T06:49:16.891Z,12
2017-01-19T06:50:17.698Z,16
2017-01-19T06:51:16.874Z,16
2017-01-19T06:52:17.691Z,20
2017-01-19T06:53:17.683Z,20
2017-01-19T06:54:17.267Z,24
2017-01-19T06:55:17.255Z,28
2017-01-19T06:56:17.267Z,32
2017-01-19T06:57:17.251Z,36
2017-01-19T06:58:17.667Z,40
2017-01-19T06:59:17.667Z,44
2017-01-19T07:00:16.827Z,48
2017-01-19T07:01:17.651Z,52
2017-01-19T07:02:17.227Z,56
2017-01-19T07:03:17.639Z,64
2017-01-19T07:04:17.219Z,72
2017-01-19T07:05:17.219Z,76
2017-01-19T07:06:17.627Z,84
2017-01-19T07:07:17.199Z,92
2017-01-19T07:08:17.207Z,100
2017-01-19T07:09:17.191Z,120
2017-01-19T07:10:17.187Z,132
2017-01-19T07:11:17.183Z,140
2017-01-19T07:12:17.175Z,140
2017-01-19T07:13:16.767Z,148
2017-01-19T07:14:17.176Z,156
2017-01-19T07:15:17.167Z,164
2017-01-19T07:16:16.747Z,176
2017-01-19T07:17:17.576Z,184
2017-01-19T07:18:17.563Z,196
2017-01-19T07:19:17.559Z,208
2017-01-19T07:20:17.143Z,216
2017-01-19T07:21:17.540Z,224
2017-01-19T07:22:17.548Z,240
2017-01-19T07:23:16.716Z,252
2017-01-19T07:24:16.707Z,268
2017-01-19T07:25:17.115Z,288
2017-01-19T07:26:17.116Z,316
2017-01-19T07:27:17.263Z,328
2017-01-19T07:28:17.107Z,340
2017-01-19T07:29:17.103Z,356
2017-01-19T07:30:17.499Z,380
2017-01-19T07:31:16.264Z,396
2017-01-19T07:32:17.088Z,408
2017-01-19T07:33:17.492Z,444
2017-01-19T07:34:17.071Z,464
2017-01-19T07:35:17.067Z,484
2017-01-19T07:36:17.060Z,500
2017-01-19T07:37:17.067Z,512
2017-01-19T07:38:17.463Z,524
2017-01-19T07:39:17.463Z,524
2017-01-19T07:40:17.047Z,524
2017-01-19T07:41:17.038Z,528
2017-01-19T07:42:17.443Z,532
2017-01-19T07:43:17.030Z,544
2017-01-19T07:44:16.610Z,524
2017-01-19T07:45:16.610Z,508
2017-01-19T07:46:17.422Z,524
2017-01-19T07:47:17.426Z,540
2017-01-19T07:48:16.593Z,532
2017-01-19T07:49:17.004Z,528
2017-01-19T07:50:16.581Z,540
2017-01-19T07:51:16.585Z,552
2017-01-19T07:52:16.577Z,560
2017-01-19T07:53:17.397Z,560
2017-01-19T07:54:16.969Z,584
2017-01-19T07:55:17.381Z,588
2017-01-19T07:56:16.553Z,604
2017-01-19T07:57:17.369Z,628
2017-01-19T07:58:16.957Z,644
2017-01-19T07:59:17.361Z,688
2017-01-19T08:00:17.353Z,708
2017-01-19T08:01:16.937Z,732
2017-01-19T08:02:16.933Z,756
2017-01-19T08:03:16.517Z,752
2017-01-19T08:04:16.925Z,740
2017-01-19T08:05:17.329Z,764
2017-01-19T08:06:17.321Z,756
2017-01-19T08:07:16.505Z,764
2017-01-19T08:08:17.325Z,776
2017-01-19T08:09:16.485Z,812
2017-01-19T08:10:17.301Z,844
2017-01-19T08:11:17.301Z,852
2017-01-19T08:12:17.297Z,872
2017-01-19T08:13:16.885Z,916
2017-01-19T08:14:16.877Z,924
2017-01-19T08:15:17.281Z,956
2017-01-19T08:16:17.273Z,992
2017-01-19T08:17:17.661Z,1008
2017-01-19T08:18:16.861Z,1036
2017-01-19T08:19:16.433Z,1032
2017-01-19T08:20:17.265Z,1024
2017-01-19T08:21:16.845Z,1008
2017-01-19T08:22:16.841Z,1032
2017-01-19T08:23:16.837Z,1088
2017-01-19T08:24:16.837Z,1104
2017-01-19T08:25:17.237Z,1088
2017-01-19T08:26:17.221Z,1076
2017-01-19T08:27:17.221Z,1104
2017-01-19T08:28:16.801Z,1084
2017-01-19T08:29:15.985Z,1056
2017-01-19T08:30:16.801Z,1056
2017-01-19T08:31:16.385Z,1068
2017-01-19T08:32:16.793Z,1084
2017-01-19T08:33:17.197Z,1136
2017-01-19T08:34:17.189Z,1160
2017-01-19T08:35:17.193Z,1176
2017-01-19T08:36:16.765Z,1200
2017-01-19T08:37:16.765Z,1248
2017-01-19T08:38:17.173Z,1244
2017-01-19T08:39:16.753Z,1232
2017-01-19T08:40:16.749Z,1236
2017-01-19T08:41:16.749Z,1236
2017-01-19T08:42:16.325Z,1268
2017-01-19T08:43:17.153Z,1312
2017-01-19T08:44:16.733Z,1332
2017-01-19T08:45:16.734Z,1352
2017-01-19T08:46:16.309Z,1412
2017-01-19T08:47:16.305Z,1456
2017-01-19T08:48:16.714Z,1408
2017-01-19T08:49:16.713Z,1376
2017-01-19T08:50:16.702Z,1380
2017-01-19T08:51:16.294Z,1412
2017-01-19T08:52:16.702Z,1460
2017-01-19T08:53:16.278Z,1476
2017-01-19T08:54:16.262Z,1528
2017-01-19T08:55:16.682Z,1592
2017-01-19T08:56:16.266Z,1612
2017-01-19T08:57:17.085Z,1612
2017-01-19T08:58:16.254Z,1616
2017-01-19T08:59:17.074Z,1644
2017-01-19T09:00:17.070Z,1700
2017-01-19T09:01:17.066Z,1736
2017-01-19T09:02:16.649Z,1828
2017-01-19T09:03:16.654Z,1912
2017-01-19T09:04:16.642Z,1960
2017-01-19T09:05:16.622Z,1932
2017-01-19T09:06:16.634Z,1900
2017-01-19T09:07:17.043Z,1928
2017-01-19T09:08:16.610Z,2008
2017-01-19T09:09:16.211Z,2072
2017-01-19T09:10:17.031Z,1956
2017-01-19T09:11:16.606Z,1928
2017-01-19T09:12:16.619Z,2000
2017-01-19T09:13:16.595Z,2020
2017-01-19T09:14:16.187Z,2032
2017-01-19T09:15:16.586Z,2000
2017-01-19T09:16:16.987Z,2036
2017-01-19T09:17:16.571Z,2040
2017-01-19T09:18:16.979Z,2100
2017-01-19T09:19:16.591Z,2148
2017-01-19T09:20:16.975Z,2144
2017-01-19T09:21:16.563Z,2152
2017-01-19T09:22:16.714Z,2204
2017-01-19T09:23:16.138Z,2356
2017-01-19T09:24:16.551Z,2428
2017-01-19T09:25:16.550Z,2448
2017-01-19T09:26:16.942Z,2472
2017-01-19T09:27:16.346Z,2552
2017-01-19T09:28:16.526Z,2600
2017-01-19T09:29:16.938Z,2500
2017-01-19T09:30:16.518Z,2404
2017-01-19T09:31:16.510Z,2388
2017-01-19T09:32:16.930Z,2392
2017-01-19T09:33:16.502Z,2388
2017-01-19T09:34:16.090Z,2328
2017-01-19T09:35:16.909Z,2316
2017-01-19T09:36:16.913Z,2348
2017-01-19T09:37:16.498Z,2344
2017-01-19T09:38:16.893Z,2392
2017-01-19T09:39:16.066Z,2472
2017-01-19T09:40:16.477Z,2460
2017-01-19T09:41:16.482Z,2492
2017-01-19T09:42:16.477Z,2516
2017-01-19T09:43:16.465Z,2516
2017-01-19T09:44:16.461Z,2516
2017-01-19T09:45:16.870Z,2532
2017-01-19T09:46:16.865Z,2536
2017-01-19T09:47:16.445Z,2532
2017-01-19T09:48:16.442Z,2528
2017-01-19T09:49:16.441Z,2592
2017-01-19T09:50:16.441Z,2636
2017-01-19T09:51:16.445Z,2632
2017-01-19T09:52:16.833Z,2604
2017-01-19T09:53:16.834Z,2628
2017-01-19T09:54:16.425Z,2700
2017-01-19T09:55:16.413Z,2668
2017-01-19T09:56:16.429Z,2604
2017-01-19T09:57:16.413Z,2580
2017-01-19T09:58:16.817Z,2552
2017-01-19T09:59:16.397Z,2600
2017-01-19T10:00:16.386Z,2612
2017-01-19T10:01:16.386Z,2628
2017-01-19T10:02:16.381Z,2652
2017-01-19T10:03:16.789Z,2732
2017-01-19T10:04:16.370Z,2756
2017-01-19T10:05:15.958Z,2712
2017-01-19T10:06:16.774Z,2756
2017-01-19T10:07:16.354Z,2756
2017-01-19T10:08:16.354Z,2800
2017-01-19T10:09:15.942Z,2812
2017-01-19T10:10:16.346Z,2944
2017-01-19T10:11:15.926Z,2900
2017-01-19T10:12:16.758Z,2864
2017-01-19T10:13:16.754Z,2912
2017-01-19T10:14:15.948Z,2912
2017-01-19T10:15:16.742Z,2880
2017-01-19T10:16:16.350Z,2864
2017-01-19T10:17:15.499Z,2832
2017-01-19T10:18:16.731Z,2792
2017-01-19T10:19:16.315Z,2792
2017-01-19T10:20:15.891Z,2900
2017-01-19T10:21:16.719Z,2952
2017-01-19T10:22:15.891Z,2976
2017-01-19T10:23:15.883Z,3004
2017-01-19T10:24:16.287Z,2988
2017-01-19T10:25:16.703Z,2956
2017-01-19T10:26:16.287Z,3036
2017-01-19T10:27:15.879Z,3148
2017-01-19T10:28:47.919Z,3200
2017-01-19T10:29:16.691Z,3224
2017-01-19T10:30:16.267Z,3252
2017-01-19T10:31:16.283Z,3244
2017-01-19T10:32:16.680Z,3240
2017-01-19T10:33:16.675Z,3144
2017-01-19T10:34:16.672Z,3132
2017-01-19T10:35:15.844Z,3144
2017-01-19T10:36:16.251Z,3124
2017-01-19T10:37:15.428Z,3132
2017-01-19T10:38:16.272Z,3112
2017-01-19T10:39:16.236Z,3068
2017-01-19T10:40:16.228Z,3120
2017-01-19T10:41:16.636Z,3160
2017-01-19T10:42:16.228Z,3204
2017-01-19T10:43:16.360Z,3236
2017-01-19T10:44:15.802Z,3292
2017-01-19T10:45:16.627Z,3324
2017-01-19T10:46:16.208Z,3288
2017-01-19T10:47:16.616Z,3300
2017-01-19T10:48:16.612Z,3344
2017-01-19T10:49:16.189Z,3380
2017-01-19T10:50:16.604Z,3412
2017-01-19T10:51:15.776Z,3460
2017-01-19T10:52:16.184Z,3420
2017-01-19T10:53:16.185Z,3376
2017-01-19T10:54:16.174Z,3344
2017-01-19T10:55:16.581Z,3360
2017-01-19T10:56:16.173Z,3368
2017-01-19T10:57:16.165Z,3332
2017-01-19T10:58:16.574Z,3328
2017-01-19T10:59:16.161Z,3336
2017-01-19T11:00:16.561Z,3384
2017-01-19T11:01:16.149Z,3412
2017-01-19T11:02:15.745Z,3448
2017-01-19T11:03:16.558Z,3444
2017-01-19T11:04:15.738Z,3396
2017-01-19T11:05:16.550Z,3344
2017-01-19T11:06:16.138Z,3324
2017-01-19T11:07:15.310Z,3284
2017-01-19T11:08:15.710Z,3268
2017-01-19T11:09:15.710Z,3248
2017-01-19T11:10:16.534Z,3216
2017-01-19T11:11:16.110Z,3196
2017-01-19T11:12:16.107Z,3200
2017-01-19T11:13:15.286Z,3196
2017-01-19T11:14:15.694Z,3188
2017-01-19T11:15:16.510Z,3196
2017-01-19T11:16:15.683Z,3184
2017-01-19T11:17:16.507Z,3196
2017-01-19T11:18:15.687Z,3244
2017-01-19T11:19:16.091Z,3328
2017-01-19T11:20:16.079Z,3376
2017-01-19T11:21:16.495Z,3356
2017-01-19T11:22:16.076Z,3376
2017-01-19T11:23:15.655Z,3380
2017-01-19T11:24:16.067Z,3328
2017-01-19T11:25:16.479Z,3264
2017-01-19T11:26:16.064Z,3236
2017-01-19T11:27:16.060Z,3212
2017-01-19T11:28:15.644Z,3172
2017-01-19T11:29:16.464Z,3168
2017-01-19T11:30:16.056Z,3188
2017-01-19T11:31:16.036Z,3228
2017-01-19T11:32:16.033Z,3256
2017-01-19T11:33:16.040Z,3272
2017-01-19T11:34:16.436Z,3308
2017-01-19T11:35:16.029Z,3352
2017-01-19T11:36:16.025Z,3360
2017-01-19T11:37:16.021Z,3312
2017-01-19T11:38:16.021Z,3340
2017-01-19T11:39:16.425Z,3380
2017-01-19T11:40:16.017Z,3400
2017-01-19T11:41:16.429Z,3388
2017-01-19T11:42:16.006Z,3400
2017-01-19T11:43:16.002Z,3408
2017-01-19T11:44:15.998Z,3456
2017-01-19T11:45:15.994Z,3488
2017-01-19T11:46:16.402Z,3476
2017-01-19T11:47:15.570Z,3472
2017-01-19T11:48:15.975Z,3516
2017-01-19T11:49:15.571Z,3496
2017-01-19T11:50:16.386Z,3460
2017-01-19T11:51:15.591Z,3496
2017-01-19T11:52:15.972Z,3480
2017-01-19T11:53:15.699Z,3540
2017-01-19T11:54:16.368Z,3600
2017-01-19T11:55:15.956Z,3692
2017-01-19T11:56:16.367Z,3692
2017-01-19T11:57:15.943Z,3648
2017-01-19T11:58:15.952Z,3572
2017-01-19T11:59:15.528Z,3464
2017-01-19T12:00:15.948Z,3460
2017-01-19T12:01:15.944Z,3480
2017-01-19T12:02:16.348Z,3412
2017-01-19T12:03:15.936Z,3368
2017-01-19T12:04:15.116Z,3316
2017-01-19T12:05:15.912Z,3340
2017-01-19T12:06:15.512Z,3364
2017-01-19T12:07:15.916Z,3380
2017-01-19T12:08:15.917Z,3408
2017-01-19T12:09:16.317Z,3436
2017-01-19T12:10:15.908Z,3432
2017-01-19T12:11:15.493Z,3448
2017-01-19T12:12:15.901Z,3448
2017-01-19T12:13:16.457Z,3428
2017-01-19T12:14:16.309Z,3372
2017-01-19T12:15:15.489Z,3296
2017-01-19T12:16:15.894Z,3264
2017-01-19T12:17:15.889Z,3288
2017-01-19T12:18:16.289Z,3300
2017-01-19T12:19:16.286Z,3320
2017-01-19T12:20:15.466Z,3328
2017-01-19T12:21:15.875Z,3384
2017-01-19T12:22:15.046Z,3360
2017-01-19T12:23:15.870Z,3404
2017-01-19T12:24:16.274Z,3444
2017-01-19T12:25:16.275Z,3432
2017-01-19T12:26:15.855Z,3440
2017-01-19T12:27:15.443Z,3408
2017-01-19T12:28:16.267Z,3352
2017-01-19T12:29:15.843Z,3300
2017-01-19T12:30:16.255Z,3304
2017-01-19T12:31:15.435Z,3256
2017-01-19T12:32:15.835Z,3240
2017-01-19T12:33:16.247Z,3280
2017-01-19T12:34:16.243Z,3340
2017-01-19T12:35:16.246Z,3376
2017-01-19T12:36:15.826Z,3448
2017-01-19T12:37:15.822Z,3484
2017-01-19T12:38:16.378Z,3464
2017-01-19T12:39:15.402Z,3440
2017-01-19T12:40:15.390Z,3440
2017-01-19T12:41:14.982Z,3412
2017-01-19T12:42:15.385Z,3404
2017-01-19T12:43:15.389Z,3364
2017-01-19T12:44:16.205Z,3320
2017-01-19T12:45:15.381Z,3264
2017-01-19T12:46:15.797Z,3188
2017-01-19T12:47:15.377Z,3180
2017-01-19T12:48:15.781Z,3164
2017-01-19T12:49:15.781Z,3128
2017-01-19T12:50:16.185Z,3092
2017-01-19T12:51:16.193Z,3032
2017-01-19T12:52:16.181Z,3028
2017-01-19T12:53:15.365Z,3116
2017-01-19T12:54:15.361Z,3156
2017-01-19T12:55:16.177Z,3176
2017-01-19T12:56:15.353Z,3188
2017-01-19T12:57:15.761Z,3128
2017-01-19T12:58:16.041Z,3092
2017-01-19T12:59:15.753Z,3032
2017-01-19T13:00:15.745Z,2984
2017-01-19T13:01:16.152Z,3012
2017-01-19T13:02:15.733Z,2968
2017-01-19T13:03:15.889Z,2924
2017-01-19T13:04:16.145Z,2904
2017-01-19T13:05:16.141Z,2876
2017-01-19T13:06:15.717Z,2868
2017-01-19T13:07:16.134Z,2864
2017-01-19T13:08:15.305Z,2872
2017-01-19T13:09:15.305Z,2804
2017-01-19T13:10:15.717Z,2712
2017-01-19T13:11:15.709Z,2652
2017-01-19T13:12:15.293Z,2580
2017-01-19T13:13:15.709Z,2536
2017-01-19T13:14:16.109Z,2512
2017-01-19T13:15:15.285Z,2564
2017-01-19T13:16:15.281Z,2564
2017-01-19T13:17:15.690Z,2540
2017-01-19T13:18:15.681Z,2584
2017-01-19T13:19:15.269Z,2572
2017-01-19T13:20:15.673Z,2568
2017-01-19T13:21:15.262Z,2588
2017-01-19T13:22:16.081Z,2592
2017-01-19T13:23:16.074Z,2544
2017-01-19T13:24:16.077Z,2548
2017-01-19T13:25:15.658Z,2584
2017-01-19T13:26:15.654Z,2576
2017-01-19T13:27:15.653Z,2564
2017-01-19T13:28:15.642Z,2496
2017-01-19T13:29:16.074Z,2444
2017-01-19T13:30:15.639Z,2444
2017-01-19T13:31:15.642Z,2444
2017-01-19T13:32:15.638Z,2408
2017-01-19T13:33:16.042Z,2384
2017-01-19T13:34:16.042Z,2332
2017-01-19T13:35:15.222Z,2276
2017-01-19T13:36:16.038Z,2236
2017-01-19T13:37:16.034Z,2240
2017-01-19T13:38:16.018Z,2212
2017-01-19T13:39:16.034Z,2196
2017-01-19T13:40:16.022Z,2192
2017-01-19T13:41:15.194Z,2196
2017-01-19T13:42:16.030Z,2188
2017-01-19T13:43:15.186Z,2180
2017-01-19T13:44:15.190Z,2164
2017-01-19T13:45:15.590Z,2124
2017-01-19T13:46:15.590Z,2124
2017-01-19T13:47:15.994Z,2120
2017-01-19T13:48:15.170Z,2064
2017-01-19T13:49:15.586Z,2016
2017-01-19T13:50:15.989Z,1988
2017-01-19T13:51:15.981Z,1984
2017-01-19T13:52:15.565Z,1964
2017-01-19T13:53:15.181Z,1924
2017-01-19T13:54:15.557Z,1916
2017-01-19T13:55:15.561Z,1916
2017-01-19T13:56:15.557Z,1912
2017-01-19T13:57:15.549Z,1856
2017-01-19T13:58:15.949Z,1844
2017-01-19T13:59:15.953Z,1808
2017-01-19T14:00:15.545Z,1776
2017-01-19T14:01:15.941Z,1760
2017-01-19T14:02:15.533Z,1760